Time;durP1;ratioP1;P1;durP2;ratioP2;P2;SDS_P1;SDS_P2;PMS_P1;PMS_P2;Temp;Humidity;BMP_temperature;BMP_pressure;BME280_temperature;BME280_humidity;BME280_pressure;Samples;Min_cycle;Max_cycle;Signal;HPM_P1;HPM_P2
2022/07/31 00:00:14;;;;;;;;;1.00;1.00;;;;;23.62;48.14;101650.06;5779984;24;72998;-82
2022/07/31 00:06:14;;;;;;;;;1.67;0.00;;;;;23.59;48.89;101634.94;5762216;24;45536;-83
2022/07/31 00:08:39;;;;;;;;;1.00;1.00;;;;;23.43;48.81;101615.03;5830253;24;45565;-84
2022/07/31 00:11:05;;;;;;;;;1.00;1.00;;;;;23.47;48.93;101622.00;6141590;23;45413;-84
2022/07/31 00:13:30;;;;;;;;;0.00;0.00;;;;;23.41;48.87;101615.09;6159329;23;45373;-84
2022/07/31 00:15:58;;;;;;;;;1.00;1.00;;;;;23.42;49.07;101619.56;6157628;23;45412;-84
2022/07/31 00:18:23;;;;;;;;;0.00;0.00;;;;;23.37;49.07;101615.31;6184715;23;46936;-84
2022/07/31 00:20:49;;;;;;;;;1.00;1.00;;;;;23.33;48.72;101611.88;6158185;23;45441;-84
2022/07/31 00:23:20;;;;;;;;;0.00;0.00;;;;;23.46;49.22;101639.09;6157344;23;45326;-83
2022/07/31 00:25:47;;;;;;;;;1.00;1.00;;;;;23.36;48.99;101617.09;6183325;23;45428;-83
2022/07/31 00:28:15;;;;;;;;;0.00;0.00;;;;;23.26;49.27;101608.59;6181970;23;46179;-84
2022/07/31 00:30:43;;;;;;;;;1.00;1.00;;;;;23.31;49.24;101616.47;6157149;23;45310;-84
2022/07/31 00:33:13;;;;;;;;;1.67;1.67;;;;;23.38;48.98;101642.09;6184215;23;45237;-84
2022/07/31 00:35:39;;;;;;;;;2.00;1.00;;;;;23.27;49.27;101633.63;6185538;23;45654;-84
2022/07/31 00:38:09;;;;;;;;;1.00;1.00;;;;;23.34;49.50;101648.56;6186343;23;46259;-84
2022/07/31 00:40:35;;;;;;;;;0.67;0.67;;;;;23.15;49.74;101616.25;6159703;23;46121;-84
2022/07/31 00:43:10;;;;;;;;;;;;;;;;;;;;;
2022/07/31 00:45:38;;;;;;;;;0.00;0.00;;;;;23.09;49.69;101617.38;6185671;23;72864;-84
2022/07/31 00:48:08;;;;;;;;;0.00;0.00;;;;;23.16;50.28;101631.41;6184516;23;48431;-84
2022/07/31 00:50:33;;;;;;;;;0.00;0.00;;;;;23.13;50.21;101638.72;6159689;23;45513;-84
2022/07/31 00:52:59;;;;;;;;;0.00;0.00;;;;;23.13;50.43;101641.41;6186693;23;45407;-84
2022/07/31 00:55:30;;;;;;;;;0.00;0.00;;;;;22.97;50.34;101619.69;6186362;23;45401;-83
2022/07/31 00:57:58;;;;;;;;;0.67;0.67;;;;;22.88;50.46;101611.06;6159466;23;46708;-83
2022/07/31 01:00:31;;;;;;;;;0.00;0.00;;;;;22.86;50.29;101615.59;6159619;23;45283;-84
2022/07/31 01:02:56;;;;;;;;;0.00;0.00;;;;;22.92;50.48;101627.03;6186782;23;45154;-84
2022/07/31 01:05:22;;;;;;;;;0.00;0.00;;;;;22.80;50.50;101615.88;6159388;23;45421;-84
2022/07/31 01:07:48;;;;;;;;;0.00;0.00;;;;;22.92;50.77;101643.16;6159272;23;47376;-84
2022/07/31 01:10:31;;;;;;;;;0.00;0.00;;;;;22.94;50.66;101657.38;6158979;23;45294;-84
2022/07/31 01:13:03;;;;;;;;;1.00;1.00;;;;;22.79;50.75;101627.53;6186666;23;45242;-84
2022/07/31 01:15:29;;;;;;;;;1.00;1.00;;;;;22.85;50.88;101637.13;6158855;23;45348;-83
2022/07/31 01:17:57;;;;;;;;;1.00;1.00;;;;;22.74;51.22;101626.81;6186532;23;45375;-83
2022/07/31 01:20:25;;;;;;;;;1.67;1.67;;;;;22.74;51.36;101629.50;6159251;23;45365;-83
2022/07/31 01:23:12;;;;;;;;;2.00;2.00;;;;;22.89;51.22;101652.19;6184345;23;45415;-84
2022/07/31 01:25:57;;;;;;;;;2.00;2.00;;;;;22.76;51.59;101627.66;6160839;23;45392;-83
2022/07/31 01:28:34;;;;;;;;;1.00;1.00;;;;;22.73;51.55;101626.91;6187758;23;45401;-84
2022/07/31 01:31:05;;;;;;;;;2.00;2.00;;;;;22.68;51.56;101613.66;6187872;23;45327;-84
2022/07/31 01:33:51;;;;;;;;;2.00;2.00;;;;;22.66;51.56;101611.03;6187764;23;45363;-84
2022/07/31 01:36:23;;;;;;;;;2.00;2.00;;;;;22.67;51.37;101622.66;6160741;23;45438;-83
2022/07/31 01:39:02;;;;;;;;;3.33;3.00;;;;;22.79;51.48;101653.50;6160678;23;46202;-84
2022/07/31 01:41:42;;;;;;;;;1.33;1.33;;;;;22.61;51.63;101625.56;6161011;23;45404;-84
2022/07/31 01:44:11;;;;;;;;;1.00;1.00;;;;;22.57;51.72;101624.81;6160546;23;45333;-83
2022/07/31 01:46:46;;;;;;;;;1.00;1.00;;;;;22.71;51.92;101650.25;6160670;23;45374;-83
2022/07/31 01:49:20;;;;;;;;;2.67;1.33;;;;;22.59;52.08;101636.38;6159566;23;47879;-83
2022/07/31 01:51:49;;;;;;;;;1.00;1.00;;;;;22.63;51.91;101647.88;6160430;23;45385;-83
2022/07/31 01:54:25;;;;;;;;;2.67;2.67;;;;;22.63;52.22;101646.06;6188076;23;45305;-83
2022/07/31 01:56:52;;;;;;;;;2.00;2.00;;;;;22.54;52.15;101632.13;6159880;23;45524;-83
2022/07/31 01:59:20;;;;;;;;;4.75;4.00;;;;;22.52;52.14;101637.56;6160479;23;47328;-83
2022/07/31 02:01:51;;;;;;;;;3.75;3.50;;;;;22.55;52.35;101644.63;6187150;23;45395;-84
2022/07/31 02:04:22;;;;;;;;;2.67;2.67;;;;;22.46;52.41;101638.69;6160617;23;45210;-83
2022/07/31 02:07:13;;;;;;;;;;;;;;;;;;;;;
2022/07/31 02:09:56;;;;;;;;;2.00;2.00;;;;;22.39;52.41;101628.22;6185846;23;73801;-83
2022/07/31 02:12:24;;;;;;;;;2.00;2.00;;;;;22.41;52.58;101642.47;6187716;23;45171;-82
2022/07/31 02:14:51;;;;;;;;;2.00;2.00;;;;;22.45;52.62;101652.13;6187626;23;45299;-82
2022/07/31 02:17:18;;;;;;;;;2.33;1.00;;;;;22.33;52.79;101620.44;6160359;23;45631;-82
2022/07/31 02:19:44;;;;;;;;;3.67;2.67;;;;;22.37;52.92;101640.81;6160603;23;48045;-82
2022/07/31 02:22:09;;;;;;;;;2.00;2.00;;;;;22.42;52.71;101646.91;6187505;23;45832;-82
2022/07/31 02:24:37;;;;;;;;;2.00;2.00;;;;;22.35;52.89;101645.41;6187709;23;45167;-82
2022/07/31 02:27:04;;;;;;;;;3.00;2.00;;;;;22.31;52.92;101641.94;6160578;23;45345;-82
2022/07/31 02:29:31;;;;;;;;;1.00;1.00;;;;;22.33;53.16;101649.94;6160399;23;47181;-82
2022/07/31 02:31:59;;;;;;;;;2.67;2.67;;;;;22.20;53.17;101639.66;6187376;23;45378;-82
2022/07/31 02:34:29;;;;;;;;;2.00;2.00;;;;;22.19;53.06;101637.06;6161238;23;45365;-82
2022/07/31 02:37:11;;;;;;;;;;;;;;;;;;;;;
2022/07/31 02:39:43;;;;;;;;;2.00;2.00;;;;;22.07;53.24;101616.03;6185872;23;75281;-82
2022/07/31 02:42:12;;;;;;;;;1.00;0.67;;;;;22.11;53.30;101623.91;6187145;23;45380;-82
2022/07/31 02:44:48;;;;;;;;;1.00;1.00;;;;;22.06;53.68;101623.19;6187644;23;45182;-82
2022/07/31 02:47:21;;;;;;;;;1.00;1.00;;;;;22.02;53.60;101624.22;6160030;23;45272;-83
2022/07/31 02:49:57;;;;;;;;;;;;;;;;;;;;;
2022/07/31 02:52:51;;;;;;;;;;;;;;;;;;;;;
2022/07/31 02:55:18;;;;;;;;;1.00;1.00;;;;;22.02;54.33;101633.19;6185890;23;68691;-82
2022/07/31 02:57:46;;;;;;;;;2.00;1.00;;;;;21.99;54.03;101622.53;6185365;23;45586;-82
2022/07/31 03:00:22;;;;;;;;;2.00;1.00;;;;;22.05;54.26;101620.56;6187181;23;46049;-82
2022/07/31 03:02:53;;;;;;;;;1.33;1.00;;;;;22.01;54.36;101612.63;6159907;23;45434;-82
2022/07/31 03:05:20;;;;;;;;;1.00;1.00;;;;;22.12;54.04;101622.09;6160325;23;45270;-83
2022/07/31 03:07:48;;;;;;;;;3.00;3.00;;;;;22.07;53.87;101613.34;6186966;23;45679;-82
2022/07/31 03:10:16;;;;;;;;;1.33;1.33;;;;;22.17;54.29;101620.13;6159828;23;46695;-82
2022/07/31 03:12:44;;;;;;;;;2.33;2.33;;;;;22.23;54.13;101630.63;6159908;23;45254;-82
2022/07/31 03:15:27;;;;;;;;;2.00;2.00;;;;;22.34;54.01;101643.63;6160757;23;45217;-82
2022/07/31 03:17:53;;;;;;;;;2.00;2.00;;;;;22.18;53.82;101595.94;6160124;23;45401;-81
2022/07/31 03:20:21;;;;;;;;;3.33;3.33;;;;;22.39;54.31;101626.41;6160314;23;48087;-81
2022/07/31 03:22:47;;;;;;;;;2.00;2.00;;;;;22.25;53.97;101607.31;6159825;23;45373;-81
2022/07/31 03:25:13;;;;;;;;;3.00;3.00;;;;;22.42;53.89;101628.97;6186982;23;45381;-81
2022/07/31 03:27:38;;;;;;;;;6.50;6.50;;;;;22.22;54.14;101583.28;6185381;23;45338;-81
2022/07/31 03:30:05;;;;;;;;;2.75;2.75;;;;;22.33;53.77;101607.88;6159667;23;47681;-80
2022/07/31 03:32:31;;;;;;;;;7.25;7.25;;;;;22.23;54.05;101577.84;6187737;23;45205;-81
2022/07/31 03:34:56;;;;;;;;;7.25;6.75;;;;;22.30;54.19;101591.91;6160284;23;45409;-81
2022/07/31 03:37:22;;;;;;;;;7.00;7.00;;;;;22.33;54.06;101597.16;6186980;23;45457;-81
2022/07/31 03:39:47;;;;;;;;;6.25;6.25;;;;;22.29;54.19;101594.63;6159723;23;47486;-81
2022/07/31 03:42:13;;;;;;;;;5.00;5.00;;;;;22.21;54.40;101589.56;6160251;23;45312;-81
2022/07/31 03:44:42;;;;;;;;;6.75;6.75;;;;;22.22;54.51;101602.06;6187318;23;45186;-81
2022/07/31 03:47:14;;;;;;;;;5.75;5.75;;;;;22.18;54.43;101593.25;6186344;23;45491;-81
2022/07/31 03:49:40;;;;;;;;;6.00;6.00;;;;;22.17;54.34;101593.28;6159680;23;48061;-81
2022/07/31 03:52:22;;;;;;;;;6.25;5.75;;;;;22.28;54.66;101617.06;6159906;23;45434;-81
2022/07/31 03:54:48;;;;;;;;;7.50;5.50;;;;;22.09;54.48;101577.47;6159615;23;45638;-82
2022/07/31 03:57:19;;;;;;;;;9.00;8.00;;;;;22.10;54.46;101583.72;6158366;23;45490;-81
2022/07/31 03:59:48;;;;;;;;;9.75;9.00;;;;;22.13;54.80;101589.84;6159733;23;47273;-81
2022/07/31 04:02:17;;;;;;;;;8.75;7.00;;;;;22.11;54.76;101581.00;6186518;23;45195;-81
2022/07/31 04:04:43;;;;;;;;;5.25;5.00;;;;;22.05;54.83;101572.28;6187094;23;45324;-81
2022/07/31 04:07:09;;;;;;;;;9.00;8.25;;;;;22.07;55.12;101575.78;6159873;23;45553;-80
2022/07/31 04:09:35;;;;;;;;;7.25;6.00;;;;;22.20;54.78;101594.06;6159662;23;47060;-81
2022/07/31 04:12:03;;;;;;;;;3.75;3.75;;;;;22.11;55.27;101582.81;6186866;23;45246;-81
2022/07/31 04:14:28;;;;;;;;;6.25;5.00;;;;;22.09;55.30;101581.97;6160044;23;45199;-81
2022/07/31 04:16:54;;;;;;;;;5.75;5.75;;;;;22.15;55.01;101596.00;6159916;23;45172;-81
2022/07/31 04:19:19;;;;;;;;;7.00;6.25;;;;;22.06;55.37;101576.75;6159543;23;47202;-81
2022/07/31 04:21:45;;;;;;;;;5.00;5.00;;;;;22.03;55.25;101575.06;6159524;23;45380;-82
2022/07/31 04:24:15;;;;;;;;;6.75;5.75;;;;;22.07;55.41;101586.53;6187301;23;45351;-80
2022/07/31 04:26:41;;;;;;;;;3.75;3.75;;;;;22.12;55.24;101595.28;6159921;23;45322;-81
2022/07/31 04:29:10;;;;;;;;;5.00;5.00;;;;;22.23;55.19;101620.78;6159322;23;47116;-81
2022/07/31 04:31:35;;;;;;;;;4.25;4.25;;;;;22.06;55.37;101591.03;6159720;23;45222;-81
2022/07/31 04:34:01;;;;;;;;;5.50;4.50;;;;;22.08;55.44;101588.25;6186893;23;45361;-81
2022/07/31 04:36:30;;;;;;;;;5.00;5.00;;;;;22.16;55.27;101603.16;6159743;23;45442;-81
2022/07/31 04:38:55;;;;;;;;;7.00;6.00;;;;;22.19;55.42;101610.25;6159777;23;47561;-81
2022/07/31 04:41:23;;;;;;;;;4.25;4.25;;;;;22.02;55.62;101581.31;6158555;23;45673;-81
2022/07/31 04:43:48;;;;;;;;;4.75;4.00;;;;;22.03;55.47;101583.97;6186692;23;45375;-81
2022/07/31 04:46:17;;;;;;;;;3.75;3.75;;;;;22.18;55.29;101616.47;6184519;23;45238;-81
2022/07/31 04:48:42;;;;;;;;;6.25;6.25;;;;;22.09;55.54;101596.25;6186325;23;45384;-82
2022/07/31 04:51:08;;;;;;;;;3.00;3.00;;;;;22.06;55.73;101591.03;6159809;23;45936;-81
2022/07/31 04:53:48;;;;;;;;;4.00;4.00;;;;;22.08;55.85;101604.34;6186695;23;45225;-81
2022/07/31 04:59:01;;;;;;;;;3.33;3.33;;;;;21.93;55.65;101589.72;6186758;23;45242;-81
2022/07/31 05:01:29;;;;;;;;;2.50;2.50;;;;;22.10;55.93;101619.44;6187785;23;45221;-81
2022/07/31 05:03:55;;;;;;;;;5.00;5.00;;;;;22.12;56.11;101624.78;6160993;23;45346;-81
2022/07/31 05:06:23;;;;;;;;;4.00;4.00;;;;;21.99;55.72;101592.16;6160853;23;45491;-81
2022/07/31 05:08:48;;;;;;;;;5.00;4.00;;;;;22.00;55.94;101591.25;6160987;23;47180;-81
2022/07/31 05:11:22;;;;;;;;;4.75;4.75;;;;;22.10;56.11;101610.53;6160280;23;45171;-81
2022/07/31 05:13:51;;;;;;;;;5.25;4.00;;;;;22.15;55.82;101619.28;6187956;23;45094;-81
2022/07/31 05:16:17;;;;;;;;;4.00;4.00;;;;;22.15;55.71;101613.91;6187441;23;45201;-81
2022/07/31 05:18:46;;;;;;;;;4.67;4.67;;;;;22.08;55.74;101605.25;6185012;23;47520;-81
2022/07/31 05:21:12;;;;;;;;;4.25;4.25;;;;;22.02;55.71;101587.59;6160350;23;45197;-81
2022/07/31 05:23:39;;;;;;;;;3.00;3.00;;;;;22.15;55.55;101614.78;6187831;23;45200;-81
2022/07/31 05:26:14;;;;;;;;;5.25;5.25;;;;;22.02;55.96;101595.63;6185328;23;45426;-82
2022/07/31 05:28:41;;;;;;;;;4.33;4.33;;;;;22.06;56.05;101595.50;6160216;23;47057;-82
2022/07/31 05:31:09;;;;;;;;;3.00;3.00;;;;;22.07;56.02;101591.88;6160677;23;45696;-81
2022/07/31 05:33:35;;;;;;;;;5.00;5.00;;;;;22.05;56.27;101591.06;6161191;23;45369;-80
2022/07/31 05:36:02;;;;;;;;;3.00;2.33;;;;;22.01;56.75;101580.47;6160548;23;45191;-82
2022/07/31 05:38:28;;;;;;;;;3.75;3.00;;;;;22.11;56.49;101597.09;6187389;23;45366;-82
2022/07/31 05:40:53;;;;;;;;;3.33;3.33;;;;;22.13;56.63;101597.91;6160319;23;45163;-82
2022/07/31 05:43:19;;;;;;;;;4.00;4.00;;;;;22.26;56.09;101621.59;6187831;23;45229;-82
2022/07/31 05:45:48;;;;;;;;;4.00;4.00;;;;;22.11;56.09;101597.09;6160809;23;45203;-81
2022/07/31 05:48:14;;;;;;;;;3.00;3.00;;;;;22.18;56.13;101612.03;6160603;23;48341;-81
2022/07/31 05:50:44;;;;;;;;;3.00;3.00;;;;;22.13;56.39;101597.91;6159625;23;45286;-81
2022/07/31 05:53:30;;;;;;;;;5.00;5.00;;;;;22.15;56.12;101598.69;6160448;23;45183;-82
2022/07/31 05:55:56;;;;;;;;;4.33;4.33;;;;;22.19;56.40;101599.50;6159634;23;45376;-82
2022/07/31 05:58:43;;;;;;;;;;;;;;;;;;;;;
2022/07/31 06:01:18;;;;;;;;;3.33;3.33;;;;;22.32;55.76;101610.63;6186347;23;71425;-82
2022/07/31 06:03:53;;;;;;;;;5.67;4.00;;;;;22.35;55.57;101610.53;6160725;23;45303;-82
2022/07/31 06:06:29;;;;;;;;;3.33;3.33;;;;;22.27;55.26;101594.72;6159979;23;45708;-83
2022/07/31 06:09:15;;;;;;;;;4.00;4.00;;;;;22.28;55.60;101583.03;6187533;23;45317;-83
2022/07/31 06:12:01;;;;;;;;;4.00;4.00;;;;;22.31;55.03;101592.78;6160134;23;45187;-82
2022/07/31 06:14:28;;;;;;;;;4.00;3.00;;;;;22.32;55.52;101595.41;6186672;23;45159;-82
2022/07/31 06:16:56;;;;;;;;;4.00;4.00;;;;;22.36;55.63;101601.53;6160104;23;46281;-82
2022/07/31 06:19:21;;;;;;;;;5.33;4.33;;;;;22.51;55.49;101626.88;6160167;23;47197;-82
2022/07/31 06:21:57;;;;;;;;;4.67;4.67;;;;;22.38;55.19;101597.84;6187331;23;45347;-81
2022/07/31 06:24:31;;;;;;;;;5.00;4.00;;;;;22.39;54.80;101598.72;6187426;23;45378;-83
2022/07/31 06:27:01;;;;;;;;;4.33;4.33;;;;;22.48;55.28;101630.56;6188515;23;45408;-84
2022/07/31 06:29:32;;;;;;;;;7.00;7.00;;;;;22.39;55.09;101604.09;6184679;23;47540;-85
2022/07/31 06:32:05;;;;;;;;;4.33;4.33;;;;;22.38;54.93;101613.09;6160449;23;45375;-83
2022/07/31 06:34:33;;;;;;;;;3.67;2.67;;;;;22.35;54.85;101611.38;6187901;23;45389;-83
2022/07/31 06:36:59;;;;;;;;;4.33;4.00;;;;;22.24;55.04;101595.72;6160376;23;45571;-83
2022/07/31 06:39:24;;;;;;;;;3.75;3.75;;;;;22.47;55.34;101631.50;6159467;23;47861;-82
2022/07/31 06:41:50;;;;;;;;;5.00;5.00;;;;;22.51;55.10;101629.56;6187629;23;45324;-83
2022/07/31 06:44:18;;;;;;;;;4.00;4.00;;;;;22.54;54.76;101616.03;6185710;23;45344;-84
2022/07/31 06:46:44;;;;;;;;;5.00;5.00;;;;;22.53;54.11;101616.94;6160202;23;45236;-84
2022/07/31 06:49:10;;;;;;;;;6.00;6.00;;;;;22.63;54.03;101627.25;6186905;23;46198;-84
2022/07/31 06:51:43;;;;;;;;;4.25;4.25;;;;;22.64;53.83;101628.13;6160058;23;45287;-82
2022/07/31 06:54:09;;;;;;;;;6.33;6.33;;;;;22.64;53.62;101618.28;6187840;23;45237;-81
2022/07/31 06:56:37;;;;;;;;;4.33;3.67;;;;;22.66;53.52;101618.22;6186525;23;45417;-81
2022/07/31 06:59:04;;;;;;;;;6.50;6.25;;;;;22.68;53.62;101636.00;6160264;23;48004;-81
2022/07/31 07:01:39;;;;;;;;;6.00;6.00;;;;;22.68;53.00;101622.59;6160213;23;45372;-83
2022/07/31 07:04:28;;;;;;;;;4.00;4.00;;;;;22.68;53.30;101613.66;6187367;23;45285;-83
2022/07/31 07:06:59;;;;;;;;;4.33;4.33;;;;;22.73;53.06;101622.41;6187463;23;45406;-83
2022/07/31 07:09:24;;;;;;;;;5.50;5.00;;;;;22.87;52.78;101646.88;6159936;23;47151;-85
2022/07/31 07:11:50;;;;;;;;;5.50;5.50;;;;;22.65;53.29;101606.59;6187458;23;45380;-86
2022/07/31 07:14:15;;;;;;;;;5.33;5.33;;;;;22.67;53.02;101619.97;6160383;23;45359;-84
2022/07/31 07:16:41;;;;;;;;;8.00;7.00;;;;;22.62;52.87;101624.66;6185723;23;45424;-82
2022/07/31 07:19:06;;;;;;;;;5.00;5.00;;;;;22.66;53.49;101618.22;6187396;23;46440;-81
2022/07/31 07:21:32;;;;;;;;;5.67;4.67;;;;;22.71;53.08;101653.81;6161564;23;45802;-82
2022/07/31 07:23:57;;;;;;;;;8.00;6.25;;;;;22.69;52.75;101650.28;6185330;23;45275;-82
2022/07/31 07:26:23;;;;;;;;;6.50;6.25;;;;;22.58;52.83;101631.94;6160160;23;45172;-82
2022/07/31 07:28:48;;;;;;;;;5.00;5.00;;;;;22.61;52.71;101622.88;6187182;23;46142;-81
2022/07/31 07:31:14;;;;;;;;;5.00;5.00;;;;;22.75;52.94;101638.44;6160722;23;45876;-82
2022/07/31 07:33:39;;;;;;;;;5.67;5.67;;;;;22.84;52.68;101641.63;6160471;23;45594;-80
2022/07/31 07:36:05;;;;;;;;;5.75;5.75;;;;;22.86;52.35;101636.22;6161313;23;45502;-81
2022/07/31 07:38:30;;;;;;;;;6.75;5.75;;;;;22.93;52.77;101626.06;6160625;23;47386;-87
2022/07/31 07:40:56;;;;;;;;;6.25;6.25;;;;;23.13;52.45;101646.78;6160839;23;45947;-88
2022/07/31 07:43:21;;;;;;;;;6.25;3.75;;;;;23.18;52.45;101647.47;6160780;23;45397;-87
2022/07/31 07:45:47;;;;;;;;;6.00;5.00;;;;;23.22;52.37;101649.06;6160792;23;45285;-86
2022/07/31 07:48:12;;;;;;;;;5.25;5.00;;;;;23.18;52.38;101647.47;6185242;23;47742;-82
2022/07/31 07:50:38;;;;;;;;;6.00;5.00;;;;;23.21;51.97;101647.34;6187955;23;45298;-83
2022/07/31 07:53:03;;;;;;;;;7.00;7.00;;;;;23.21;52.07;101645.53;6161583;23;45359;-86
2022/07/31 07:55:28;;;;;;;;;4.33;4.33;;;;;23.30;52.27;101652.31;6160147;23;45428;-88
2022/07/31 07:57:54;;;;;;;;;7.00;6.00;;;;;23.37;52.19;101644.88;6160042;23;46907;-86
2022/07/31 08:00:20;;;;;;;;;6.75;5.00;;;;;23.37;51.97;101645.75;6160668;23;45345;-86
2022/07/31 08:02:47;;;;;;;;;6.00;5.50;;;;;23.41;52.02;101643.78;6160234;23;45247;-85
2022/07/31 08:05:13;;;;;;;;;8.00;5.75;;;;;23.53;51.51;101667.47;6161319;23;45226;-87
2022/07/31 08:07:40;;;;;;;;;7.75;7.50;;;;;23.48;51.38;101661.41;6161411;23;47330;-86
2022/07/31 08:10:07;;;;;;;;;5.50;5.50;;;;;23.41;51.40;101647.34;6159266;23;45352;-84
2022/07/31 08:12:33;;;;;;;;;6.00;6.00;;;;;23.50;51.31;101660.41;6160202;23;45313;-86
2022/07/31 08:14:59;;;;;;;;;7.50;5.50;;;;;23.49;51.25;101655.09;6187155;23;45411;-86
2022/07/31 08:17:24;;;;;;;;;7.50;7.50;;;;;23.51;51.38;101664.84;6159989;23;47220;-86
2022/07/31 08:19:50;;;;;;;;;6.00;5.25;;;;;23.59;51.30;101666.31;6160121;23;46302;-85
2022/07/31 08:22:16;;;;;;;;;8.00;8.00;;;;;23.59;50.98;101655.56;6161252;23;45339;-83
2022/07/31 08:24:41;;;;;;;;;7.25;7.00;;;;;23.73;51.44;101672.00;6187890;23;45361;-86
2022/07/31 08:29:52;;;;;;;;;5.25;5.25;;;;;23.83;50.67;101661.72;6186842;23;45134;-82
2022/07/31 08:32:18;;;;;;;;;8.50;6.25;;;;;23.88;51.42;101657.00;6187190;23;45207;-84
2022/07/31 08:34:43;;;;;;;;;8.00;8.00;;;;;24.01;50.93;101663.59;6183513;23;45580;-84
2022/07/31 08:37:09;;;;;;;;;9.25;8.00;;;;;24.00;50.82;101645.69;6161047;23;47151;-83
2022/07/31 08:39:35;;;;;;;;;8.00;7.00;;;;;24.16;50.11;101662.00;6160063;23;45199;-83
2022/07/31 08:42:06;;;;;;;;;6.75;6.75;;;;;24.23;50.04;101657.22;6187056;23;45392;-84
2022/07/31 08:44:31;;;;;;;;;6.00;4.00;;;;;24.26;49.80;101644.47;6160206;23;45595;-88
2022/07/31 08:46:58;;;;;;;;;6.50;6.50;;;;;24.28;49.53;101642.59;6161723;23;46773;-86
2022/07/31 08:49:25;;;;;;;;;5.25;5.25;;;;;24.25;49.70;101644.56;6161698;23;45271;-88
2022/07/31 08:51:52;;;;;;;;;7.75;7.00;;;;;24.12;49.48;101645.13;6162851;23;45495;-93
2022/07/31 08:54:18;;;;;;;;;5.33;5.33;;;;;24.02;49.63;101654.56;6163138;23;45274;-89
2022/07/31 08:56:45;;;;;;;;;7.50;6.75;;;;;23.95;50.13;101645.00;6159531;23;47318;-88
2022/07/31 08:59:11;;;;;;;;;7.67;7.67;;;;;24.04;49.79;101658.06;6185505;23;45149;-91
2022/07/31 09:01:37;;;;;;;;;8.33;8.33;;;;;24.03;49.71;101661.72;6161777;23;45186;-87
2022/07/31 09:04:03;;;;;;;;;5.33;5.33;;;;;23.96;49.32;101650.34;6160611;23;45523;-89
2022/07/31 09:06:29;;;;;;;;;9.33;9.33;;;;;23.93;49.80;101663.06;6160294;23;47846;-91
2022/07/31 09:08:55;;;;;;;;;7.00;7.00;;;;;23.86;49.69;101650.81;6190251;23;45206;-88
2022/07/31 09:11:21;;;;;;;;;9.00;7.33;;;;;23.75;49.86;101627.97;6163399;23;45422;-89
2022/07/31 09:13:59;;;;;;;;;10.50;10.50;;;;;24.02;49.55;101656.38;6188216;23;46321;-92
2022/07/31 09:16:24;;;;;;;;;6.50;6.50;;;;;24.08;49.33;101639.94;6160284;23;47328;-87
2022/07/31 09:19:01;;;;;;;;;9.00;9.00;;;;;24.15;49.23;101631.53;6160700;23;45891;-84
2022/07/31 09:21:37;;;;;;;;;9.75;9.75;;;;;24.25;48.88;101628.44;6178794;23;45253;-86
2022/07/31 09:24:03;;;;;;;;;10.67;8.67;;;;;24.40;48.96;101644.72;6178906;23;45588;-84
2022/07/31 09:26:33;;;;;;;;;7.67;7.67;;;;;24.45;48.50;101641.81;6156918;23;48271;-85
2022/07/31 09:29:00;;;;;;;;;8.50;8.25;;;;;24.47;48.67;101634.56;6158596;23;45396;-85
2022/07/31 09:31:33;;;;;;;;;7.67;7.67;;;;;24.46;48.90;101640.91;6158781;23;45384;-87
2022/07/31 09:33:59;;;;;;;;;6.67;6.67;;;;;24.49;48.78;101632.69;6157729;23;45485;-86
2022/07/31 09:36:25;;;;;;;;;8.50;8.50;;;;;24.64;48.18;101644.50;6183175;23;45429;-81
2022/07/31 09:38:50;;;;;;;;;5.33;5.33;;;;;24.64;48.37;101642.72;6157567;23;45847;-83
2022/07/31 09:41:20;;;;;;;;;9.75;9.25;;;;;24.67;48.39;101651.56;6182812;23;45325;-84
2022/07/31 09:43:55;;;;;;;;;9.67;8.00;;;;;24.65;48.44;101646.28;6183277;23;45412;-82
2022/07/31 09:46:21;;;;;;;;;6.00;6.00;;;;;24.61;48.44;101637.44;6159718;23;47158;-80
2022/07/31 09:48:51;;;;;;;;;7.50;7.50;;;;;24.65;48.14;101641.75;6159091;23;45335;-82
2022/07/31 09:51:17;;;;;;;;;8.25;7.00;;;;;24.64;48.09;101660.66;6158758;23;45262;-82
2022/07/31 09:53:45;;;;;;;;;8.50;7.00;;;;;24.64;48.22;101661.56;6158947;23;45583;-85
2022/07/31 09:56:11;;;;;;;;;9.00;9.00;;;;;24.58;47.84;101655.59;6183789;23;48638;-84
2022/07/31 09:58:43;;;;;;;;;8.00;8.00;;;;;24.61;48.17;101650.91;6159872;23;45445;-86
2022/07/31 10:01:10;;;;;;;;;8.00;8.00;;;;;24.77;48.00;101660.97;6186097;23;45337;-86
2022/07/31 10:03:38;;;;;;;;;3.75;3.50;;;;;24.81;47.47;101644.59;6186016;23;45333;-86
2022/07/31 10:06:06;;;;;;;;;7.00;7.00;;;;;24.86;47.54;101638.97;6158888;23;47506;-83
2022/07/31 10:08:36;;;;;;;;;10.00;8.75;;;;;24.91;47.57;101641.41;6185764;23;45284;-84
2022/07/31 10:11:04;;;;;;;;;9.25;7.50;;;;;25.05;47.59;101660.50;6158942;23;45381;-87
2022/07/31 10:13:34;;;;;;;;;8.50;7.50;;;;;25.09;47.49;101654.84;6186137;23;45600;-85
2022/07/31 10:16:01;;;;;;;;;8.00;8.00;;;;;25.03;46.86;101649.78;6159194;23;47087;-86
2022/07/31 10:18:27;;;;;;;;;6.00;5.25;;;;;25.07;46.93;101653.19;6184628;23;45407;-85
2022/07/31 10:20:55;;;;;;;;;9.00;8.00;;;;;25.01;47.42;101640.00;6184662;23;45351;-85
2022/07/31 10:23:24;;;;;;;;;9.00;9.00;;;;;25.02;47.33;101639.06;6183859;23;45439;-85
2022/07/31 10:25:58;;;;;;;;;9.00;9.00;;;;;25.11;47.25;101644.00;6158716;23;47997;-87
2022/07/31 10:28:24;;;;;;;;;5.50;5.50;;;;;25.11;47.23;101625.13;6186453;23;45382;-83
2022/07/31 10:30:50;;;;;;;;;8.00;7.00;;;;;25.28;46.81;101629.69;6185695;23;45230;-82
2022/07/31 10:33:17;;;;;;;;;8.50;8.25;;;;;25.42;46.68;101634.38;6157581;23;45161;-83
2022/07/31 10:36:04;;;;;;;;;10.25;8.75;;;;;25.53;47.04;101640.97;6157492;23;46909;-84
2022/07/31 10:38:40;;;;;;;;;7.75;7.50;;;;;25.61;46.20;101632.47;6185056;23;45424;-82
2022/07/31 10:41:32;;;;;;;;;7.00;6.33;;;;;25.66;46.52;101635.81;6185693;23;45260;-84
2022/07/31 10:44:02;;;;;;;;;31.00;26.75;;;;;25.69;46.30;101626.69;6158955;23;45451;-85
2022/07/31 10:46:30;;;;;;;;;18.50;16.50;;;;;25.81;45.61;101631.41;6158806;23;47998;-88
2022/07/31 10:48:56;;;;;;;;;9.00;9.00;;;;;25.89;45.80;101628.34;6158084;23;45432;-85
2022/07/31 10:51:22;;;;;;;;;9.33;9.00;;;;;26.00;45.66;101634.00;6158610;23;45354;-83
2022/07/31 10:54:01;;;;;;;;;22.25;22.25;;;;;26.09;45.83;101614.63;6158128;23;45569;-83
2022/07/31 10:56:28;;;;;;;;;7.50;6.75;;;;;26.30;45.43;101627.88;6157913;23;47302;-88
2022/07/31 10:58:58;;;;;;;;;5.00;5.00;;;;;26.55;44.88;101631.00;6159909;23;46312;-86
2022/07/31 11:01:26;;;;;;;;;5.00;5.00;;;;;26.67;44.64;101625.84;6158720;23;45514;-85
2022/07/31 11:03:58;;;;;;;;;5.67;5.33;;;;;26.77;44.11;101617.13;6158734;23;45403;-86
2022/07/31 11:06:25;;;;;;;;;6.67;6.67;;;;;26.99;44.15;101623.97;6157594;23;47520;-85
2022/07/31 11:08:52;;;;;;;;;7.33;6.00;;;;;27.11;44.16;101615.16;6159103;23;45275;-87
2022/07/31 11:11:34;;;;;;;;;5.00;5.00;;;;;27.27;43.41;101612.44;6156971;23;45397;-84
2022/07/31 11:13:59;;;;;;;;;6.00;4.67;;;;;27.44;43.24;101612.28;6158741;23;45437;-84
2022/07/31 11:16:26;;;;;;;;;7.00;7.00;;;;;27.56;43.16;101613.38;6159070;23;47183;-84
2022/07/31 11:19:03;;;;;;;;;6.00;6.00;;;;;27.65;42.50;101607.38;6158807;23;45279;-83
2022/07/31 11:21:40;;;;;;;;;5.00;4.67;;;;;27.71;42.37;101607.00;6157647;23;45298;-85
2022/07/31 11:24:20;;;;;;;;;7.33;5.33;;;;;27.76;42.27;101604.00;6158741;23;45472;-86
2022/07/31 11:26:49;;;;;;;;;5.67;5.33;;;;;27.81;42.35;101603.75;6183337;23;47686;-82
2022/07/31 11:29:26;;;;;;;;;8.67;7.67;;;;;27.76;42.01;101606.72;6161688;23;45425;-82
2022/07/31 11:31:52;;;;;;;;;7.33;6.00;;;;;27.71;42.06;101604.28;6183721;23;45670;-84
2022/07/31 11:34:17;;;;;;;;;7.00;7.00;;;;;27.83;42.40;101601.84;6158164;23;45582;-81
2022/07/31 11:36:43;;;;;;;;;6.00;5.33;;;;;27.97;41.73;101588.28;6184265;23;45982;-81
2022/07/31 11:39:11;;;;;;;;;5.67;4.00;;;;;28.12;41.64;101599.97;6158476;23;45731;-85
2022/07/31 11:41:37;;;;;;;;;4.00;4.00;;;;;28.23;41.22;101592.06;6168973;23;45330;-93
2022/07/31 11:44:04;;;;;;;;;5.00;5.00;;;;;28.37;41.05;101604.69;6134296;23;44879;-92
2022/07/31 11:46:32;;;;;;;;;4.33;4.33;;;;;28.42;41.04;101590.84;6155371;23;46890;-92
2022/07/31 11:48:59;;;;;;;;;5.00;5.00;;;;;28.50;41.06;101592.13;6165879;23;45432;-88